Time;durP1;ratioP1;P1;durP2;ratioP2;P2;SDS_P1;SDS_P2;PMS_P1;PMS_P2;Temp;Humidity;BMP_temperature;BMP_pressure;BME280_temperature;BME280_humidity;BME280_pressure;Samples;Min_cycle;Max_cycle;Signal;HPM_P1;HPM_P2
2023/08/22 00:02:50;;;;;;;10.95;3.60;;;;;;;20.99;94.80;101270.16;5279499;54;1138543;-66
2023/08/22 00:07:56;;;;;;;6.12;3.60;;;;;;;20.85;93.97;101271.34;5258798;54;1140936;-65
2023/08/22 00:13:03;;;;;;;14.35;6.12;;;;;;;20.81;94.86;101270.83;5259106;54;1138837;-68
2023/08/22 00:18:09;;;;;;;9.98;4.55;;;;;;;20.77;95.16;101267.32;5259005;54;1140809;-65
2023/08/22 00:23:16;;;;;;;10.53;4.50;;;;;;;20.71;95.17;101268.81;5134087;55;1138703;-66
2023/08/22 00:28:22;;;;;;;10.64;4.20;;;;;;;20.59;94.36;101270.15;5195009;55;1140962;-68
2023/08/22 00:33:28;;;;;;;6.40;3.35;;;;;;;20.17;93.58;101272.34;5149068;55;1140699;-64
2023/08/22 00:38:33;;;;;;;6.35;3.58;;;;;;;19.82;94.33;101273.40;5279605;54;1138594;-66
2023/08/22 00:43:39;;;;;;;8.05;3.55;;;;;;;19.58;95.29;101270.57;5258848;55;1138700;-67
2023/08/22 00:48:46;;;;;;;5.75;3.33;;;;;;;19.47;96.41;101270.81;5257766;55;1138817;-66
2023/08/22 00:53:51;;;;;;;13.85;3.17;;;;;;;19.36;96.85;101272.42;5220645;55;1138705;-66
2023/08/22 00:58:59;;;;;;;7.55;4.22;;;;;;;19.25;97.23;101266.30;5212425;54;1140603;-66
2023/08/22 01:04:05;;;;;;;6.83;3.72;;;;;;;19.35;99.33;101262.70;5180748;55;1138597;-65
2023/08/22 01:09:30;;;;;;;5.57;3.30;;;;;;;19.51;99.62;101259.65;5085844;56;1138726;-65
2023/08/22 01:14:40;;;;;;;11.75;3.90;;;;;;;19.57;98.90;101256.31;5190276;55;1138670;-66
2023/08/22 01:19:47;;;;;;;15.15;4.25;;;;;;;19.54;98.89;101255.31;5169765;55;1140971;-66
2023/08/22 01:24:52;;;;;;;6.45;3.30;;;;;;;19.50;98.56;101251.75;5169221;54;1140856;-65
2023/08/22 01:30:05;;;;;;;6.30;3.15;;;;;;;19.53;99.29;101248.27;5281833;54;1138610;-67
2023/08/22 01:35:14;;;;;;;7.67;2.90;;;;;;;19.54;98.47;101249.10;5203834;54;1138920;-64
2023/08/22 01:40:21;;;;;;;5.35;3.35;;;;;;;19.55;99.12;101240.90;5168341;56;1249467;-65
2023/08/22 01:45:27;;;;;;;6.83;3.02;;;;;;;19.52;98.53;101237.19;5189816;55;1138557;-67
2023/08/22 01:50:32;;;;;;;6.27;3.23;;;;;;;19.51;99.40;101240.87;5169654;56;1138684;-65
2023/08/22 01:55:38;;;;;;;87.00;36.98;;;;;;;19.51;99.48;101246.23;5224505;54;1138907;-65
2023/08/22 02:00:43;;;;;;;11.90;6.00;;;;;;;19.51;99.28;101244.05;5279188;54;1143243;-66
2023/08/22 02:05:49;;;;;;;6.80;3.33;;;;;;;19.49;99.10;101233.47;5258371;54;1140963;-64
2023/08/22 02:10:56;;;;;;;4.17;3.00;;;;;;;19.37;98.68;101237.41;5258436;54;1138463;-64
2023/08/22 02:16:02;;;;;;;8.98;3.17;;;;;;;19.37;99.41;101239.23;5111931;56;1138685;-64
2023/08/22 02:21:07;;;;;;;7.47;2.98;;;;;;;19.35;99.24;101242.58;5256951;55;1138704;-65
2023/08/22 02:26:13;;;;;;;20.02;3.35;;;;;;;19.30;99.24;101245.72;5258356;54;1138612;-65
2023/08/22 02:31:19;;;;;;;14.13;3.77;;;;;;;19.29;99.23;101247.56;5236064;54;1140643;-67
2023/08/22 02:36:24;;;;;;;7.53;2.98;;;;;;;19.20;98.61;101232.92;5169693;55;1141023;-65
2023/08/22 02:41:30;;;;;;;6.45;2.33;;;;;;;19.03;98.09;101232.47;5169209;56;1138712;-67
2023/08/22 02:46:35;;;;;;;5.15;2.83;;;;;;;18.93;99.34;101240.11;5112500;56;1138734;-66
2023/08/22 02:51:41;;;;;;;6.60;2.35;;;;;;;18.92;100.00;101242.45;5258461;54;1138528;-66
2023/08/22 02:56:47;;;;;;;3.72;2.02;;;;;;;18.93;100.00;101247.31;5180792;55;1140826;-67
2023/08/22 03:01:53;;;;;;;4.80;2.65;;;;;;;18.90;100.00;101233.72;5278803;54;1141055;-65
2023/08/22 03:06:59;;;;;;;13.43;3.27;;;;;;;18.95;100.00;101240.78;5258437;54;1140860;-68
2023/08/22 03:12:05;;;;;;;5.08;3.00;;;;;;;18.83;100.00;101246.55;5226339;54;1209029;-67
2023/08/22 03:17:12;;;;;;;8.45;2.55;;;;;;;18.69;100.00;101223.81;5144321;55;1172073;-67
2023/08/22 03:22:19;;;;;;;7.65;1.90;;;;;;;18.55;100.00;101231.87;5187406;55;1140717;-66
2023/08/22 03:27:25;;;;;;;13.53;2.20;;;;;;;18.58;100.00;101236.95;5169185;56;1140734;-66
2023/08/22 03:32:30;;;;;;;6.50;2.72;;;;;;;18.64;100.00;101223.42;5101795;56;1142884;-65
2023/08/22 03:37:37;;;;;;;4.17;2.40;;;;;;;18.57;100.00;101213.80;5189684;55;1140494;-66
2023/08/22 03:42:45;;;;;;;7.37;2.85;;;;;;;18.46;100.00;101216.72;5169456;55;1140847;-65
2023/08/22 03:47:50;;;;;;;13.53;4.20;;;;;;;18.42;100.00;101221.19;5029493;57;1140923;-66
2023/08/22 03:52:56;;;;;;;8.70;2.52;;;;;;;18.42;100.00;101219.85;5262748;54;1142958;-65
2023/08/22 03:58:03;;;;;;;12.37;2.67;;;;;;;18.43;100.00;101218.36;5258451;54;1140818;-65
2023/08/22 04:03:09;;;;;;;8.43;2.45;;;;;;;18.35;100.00;101229.48;5255907;54;1221902;-66
2023/08/22 04:08:15;;;;;;;11.18;2.45;;;;;;;18.28;100.00;101227.92;5257782;54;1141039;-65
2023/08/22 04:13:21;;;;;;;15.93;3.20;;;;;;;18.28;100.00;101221.23;5212153;55;1142886;-64
2023/08/22 04:18:27;;;;;;;11.90;2.52;;;;;;;18.32;100.00;101223.11;5166816;55;1142801;-67
2023/08/22 04:23:32;;;;;;;19.80;2.50;;;;;;;18.17;100.00;101230.82;5168258;55;1143025;-67
2023/08/22 04:28:38;;;;;;;6.78;2.20;;;;;;;18.04;100.00;101221.78;5251193;55;1142951;-66
2023/08/22 04:33:43;;;;;;;8.45;3.60;;;;;;;18.04;100.00;101218.27;5229393;54;1140942;-68
2023/08/22 04:38:51;;;;;;;11.53;2.35;;;;;;;18.17;100.00;101210.25;5083526;56;1140764;-64
2023/08/22 04:43:58;;;;;;;13.72;2.70;;;;;;;18.23;100.00;101215.47;5103578;56;1142853;-67
2023/08/22 04:49:04;;;;;;;16.90;3.58;;;;;;;18.21;100.00;101210.77;5170258;55;1142833;-64
2023/08/22 04:54:11;;;;;;;18.12;2.80;;;;;;;18.21;100.00;101205.41;5169962;56;1142735;-67
2023/08/22 04:59:16;;;;;;;10.85;2.90;;;;;;;18.18;100.00;101216.44;5170218;55;1142958;-67
2023/08/22 05:04:23;;;;;;;17.62;3.75;;;;;;;18.23;100.00;101212.30;5190061;55;1142900;-64
2023/08/22 05:09:30;;;;;;;8.10;1.90;;;;;;;18.31;100.00;101228.97;5029090;56;1143103;-63
2023/08/22 05:14:36;;;;;;;6.50;2.25;;;;;;;18.43;100.00;101208.14;5034487;56;1140843;-66
2023/08/22 05:19:42;;;;;;;10.85;2.20;;;;;;;18.50;100.00;101222.09;4986884;57;1140840;-63
2023/08/22 05:24:49;;;;;;;5.22;1.90;;;;;;;18.61;100.00;101226.44;5019431;56;1142921;-66
2023/08/22 05:29:55;;;;;;;8.90;2.30;;;;;;;18.62;100.00;101226.78;5050390;56;1140972;-65
2023/08/22 05:35:02;;;;;;;6.78;2.33;;;;;;;18.61;100.00;101231.30;5154792;55;1140894;-66
2023/08/22 05:40:09;;;;;;;6.03;2.27;;;;;;;18.68;100.00;101231.51;5134827;55;1140619;-64
2023/08/22 05:45:15;;;;;;;5.73;2.30;;;;;;;18.82;100.00;101230.11;5135490;55;1141190;-66
2023/08/22 05:50:21;;;;;;;6.50;2.52;;;;;;;18.87;100.00;101241.22;5129201;55;1140767;-65
2023/08/22 05:55:26;;;;;;;9.33;3.02;;;;;;;18.89;100.00;101230.69;5050240;56;1140858;-67
2023/08/22 06:00:32;;;;;;;10.15;3.08;;;;;;;18.93;100.00;101218.67;5050042;56;1140916;-67
2023/08/22 06:05:38;;;;;;;5.53;1.98;;;;;;;19.05;100.00;101231.81;5124365;55;1142978;-67
2023/08/22 06:10:45;;;;;;;5.35;2.17;;;;;;;19.17;100.00;101230.55;5045722;56;1140777;-66
2023/08/22 06:15:51;;;;;;;8.00;2.27;;;;;;;19.24;100.00;101216.37;5133286;55;1140584;-66
2023/08/22 06:21:02;;;;;;;9.08;2.58;;;;;;;19.32;100.00;101216.41;5106232;55;1140496;-67
2023/08/22 06:26:17;;;;;;;6.67;2.22;;;;;;;19.52;100.00;101210.36;5169698;55;1140602;-65
2023/08/22 06:31:19;;;;;;;7.65;2.50;;;;;;;19.82;100.00;101198.73;5200647;55;1141006;-64
2023/08/22 06:36:26;;;;;;;7.95;2.52;;;;;;;20.10;100.00;101212.75;5221058;55;1140881;-64
2023/08/22 06:41:32;;;;;;;3.65;1.45;;;;;;;20.31;100.00;101212.64;5201008;55;1140788;-65
2023/08/22 06:46:39;;;;;;;5.12;1.40;;;;;;;20.51;100.00;101201.59;5200795;55;1140671;-66
2023/08/22 06:51:45;;;;;;;4.53;1.00;;;;;;;20.64;100.00;101181.77;5170477;55;1140916;-63
2023/08/22 06:56:50;;;;;;;5.58;1.27;;;;;;;20.68;100.00;101188.00;5083758;57;1140913;-67
2023/08/22 07:01:56;;;;;;;7.42;1.72;;;;;;;20.90;100.00;101190.52;5084653;55;1140669;-65
2023/08/22 07:07:02;;;;;;;5.70;1.40;;;;;;;21.04;99.20;101173.69;5149970;55;1140778;-68
2023/08/22 07:12:07;;;;;;;9.48;1.40;;;;;;;21.00;97.72;101175.03;5154749;55;1138784;-65
2023/08/22 07:17:14;;;;;;;7.53;2.17;;;;;;;21.22;96.24;101182.09;5128467;55;1138771;-67
2023/08/22 07:22:19;;;;;;;3.12;1.27;;;;;;;21.45;97.94;101191.09;5221422;55;1138759;-67
2023/08/22 07:27:25;;;;;;;7.10;1.32;;;;;;;21.82;98.51;101182.87;5109127;56;1138864;-65
2023/08/22 07:32:31;;;;;;;3.72;1.55;;;;;;;21.92;92.86;101181.63;5200685;55;1138661;-64
2023/08/22 07:37:37;;;;;;;6.42;1.57;;;;;;;21.86;90.66;101184.17;5221359;55;1138593;-66
2023/08/22 07:42:43;;;;;;;4.30;1.50;;;;;;;22.03;92.63;101189.33;5200758;55;1138592;-67
2023/08/22 07:47:48;;;;;;;4.15;1.20;;;;;;;22.02;90.59;101184.96;5200563;55;1138847;-66
2023/08/22 07:52:54;;;;;;;1.85;1.10;;;;;;;21.96;89.36;101178.08;5150392;55;1138618;-66
2023/08/22 07:58:00;;;;;;;8.55;1.85;;;;;;;21.95;89.59;101178.59;5137117;55;1147128;-66
2023/08/22 08:03:06;;;;;;;4.42;1.75;;;;;;;22.04;88.91;101176.70;5177351;55;1255143;-66
2023/08/22 08:08:11;;;;;;;4.15;1.62;;;;;;;22.12;90.17;101169.94;5189264;55;1138662;-65
2023/08/22 08:13:17;;;;;;;3.92;1.37;;;;;;;22.30;88.60;101166.45;5233634;55;1138999;-65
2023/08/22 08:18:23;;;;;;;6.68;1.64;;;;;;;22.54;88.08;101157.83;5207027;55;1138684;-67
2023/08/22 08:23:30;;;;;;;4.83;1.32;;;;;;;22.64;85.69;101153.85;5201967;55;1138722;-67
2023/08/22 08:28:35;;;;;;;3.02;1.02;;;;;;;22.83;85.33;101145.80;5217945;55;1138883;-65
2023/08/22 08:33:41;;;;;;;4.90;1.10;;;;;;;23.13;87.41;101134.00;5124320;56;1138527;-66
2023/08/22 08:38:46;;;;;;;6.33;1.30;;;;;;;23.36;81.85;101131.73;5114229;55;1138834;-67
2023/08/22 08:43:53;;;;;;;4.65;1.75;;;;;;;23.46;82.31;101120.12;5134081;55;1139041;-66
2023/08/22 08:48:59;;;;;;;3.55;1.55;;;;;;;23.64;81.39;101123.30;5116920;55;1138665;-66
2023/08/22 08:54:06;;;;;;;2.62;1.00;;;;;;;23.65;77.72;101126.32;5058977;56;1138773;-66
2023/08/22 08:59:12;;;;;;;4.30;1.62;;;;;;;23.65;78.83;101128.19;5055837;56;1138824;-66
2023/08/22 09:04:18;;;;;;;4.92;1.57;;;;;;;23.59;79.65;101128.93;5103440;55;1138869;-68
2023/08/22 09:09:24;;;;;;;5.67;1.35;;;;;;;23.50;79.03;101128.18;5102286;55;1138884;-66
2023/08/22 09:14:30;;;;;;;3.72;1.30;;;;;;;23.38;79.56;101128.31;5112782;55;1138860;-68
2023/08/22 09:19:36;;;;;;;3.15;1.05;;;;;;;23.36;80.22;101122.28;5126803;56;1138960;-66
2023/08/22 09:24:52;;;;;;;5.05;1.62;;;;;;;23.38;80.64;101126.95;5114119;56;1138698;-66
2023/08/22 09:30:04;;;;;;;3.08;0.90;;;;;;;23.33;79.25;101125.36;5200775;55;1138799;-66
2023/08/22 09:35:09;;;;;;;7.17;1.03;;;;;;;23.19;79.97;101126.20;5168914;55;1138913;-66
2023/08/22 09:40:18;;;;;;;4.00;1.40;;;;;;;23.15;81.39;101119.82;5094024;56;1138746;-67
2023/08/22 09:45:23;;;;;;;7.08;1.75;;;;;;;23.19;80.85;101108.66;5096519;55;1138425;-67
2023/08/22 09:50:35;;;;;;;3.72;1.00;;;;;;;23.23;82.46;101105.89;5036992;55;1138716;-67
2023/08/22 09:55:41;;;;;;;3.70;1.32;;;;;;;23.35;81.68;101084.17;5097027;56;1138914;-67
2023/08/22 10:00:48;;;;;;;4.30;1.62;;;;;;;23.33;78.10;101084.86;5049491;57;1138790;-66
2023/08/22 10:05:55;;;;;;;2.80;1.20;;;;;;;23.32;77.23;101084.54;5058154;56;1138914;-67
2023/08/22 10:11:01;;;;;;;3.58;1.30;;;;;;;23.39;79.61;101097.08;5098868;56;1138770;-66
2023/08/22 10:16:07;;;;;;;4.47;1.17;;;;;;;23.54;77.97;101094.38;5040091;56;1138400;-68
2023/08/22 10:21:13;;;;;;;9.87;1.43;;;;;;;23.67;79.95;101099.97;5162834;55;1138402;-67
2023/08/22 10:26:20;;;;;;;7.65;1.22;;;;;;;23.73;79.34;101103.23;5114582;55;1138885;-66
2023/08/22 10:31:26;;;;;;;5.65;1.00;;;;;;;23.75;80.01;101093.59;5092864;55;1138927;-66
2023/08/22 10:36:31;;;;;;;9.83;1.10;;;;;;;23.71;80.18;101088.24;4955683;57;1138889;-68
2023/08/22 10:41:49;;;;;;;2.62;1.22;;;;;;;23.70;80.94;101085.22;4949716;56;1138981;-67
2023/08/22 10:47:18;;;;;;;6.97;1.70;;;;;;;23.71;81.64;101078.79;5044472;56;1138726;-65
2023/08/22 10:52:36;;;;;;;4.35;1.35;;;;;;;23.70;81.19;101070.36;5071378;56;1138648;-67
2023/08/22 10:57:55;;;;;;;5.47;1.42;;;;;;;23.75;82.16;101078.73;5083459;55;1138864;-66
2023/08/22 11:03:01;;;;;;;5.12;1.10;;;;;;;23.77;82.13;101068.58;5019505;57;1138843;-68
2023/08/22 11:08:07;;;;;;;4.50;1.45;;;;;;;23.79;80.69;101058.42;5053296;56;1139074;-68
2023/08/22 11:13:13;;;;;;;8.20;1.47;;;;;;;23.85;81.61;101057.64;5081806;56;1138715;-65
2023/08/22 11:18:18;;;;;;;2.08;1.37;;;;;;;23.88;80.49;101046.45;5165489;55;1139138;-68
2023/08/22 11:23:24;;;;;;;9.53;1.60;;;;;;;23.87;78.21;101046.13;5126792;56;1138711;-65
2023/08/22 11:28:37;;;;;;;4.67;1.17;;;;;;;23.87;79.32;101047.48;5037867;57;1138681;-67
2023/08/22 11:33:52;;;;;;;7.45;1.45;;;;;;;23.85;77.02;101044.13;5048344;56;1138779;-68
2023/08/22 11:38:59;;;;;;;4.90;1.50;;;;;;;23.87;80.36;101044.78;5100216;56;1138893;-67
2023/08/22 11:44:05;;;;;;;6.42;1.52;;;;;;;24.02;82.43;101054.17;5023499;56;1138597;-66
2023/08/22 11:49:11;;;;;;;2.50;1.10;;;;;;;24.30;80.33;101050.18;5109217;56;1138591;-67
2023/08/22 11:54:29;;;;;;;4.43;1.33;;;;;;;24.48;79.04;101047.31;5114631;56;1139017;-67
2023/08/22 11:59:35;;;;;;;3.55;1.22;;;;;;;24.69;79.72;101044.23;5097383;56;1138697;-69
2023/08/22 12:04:47;;;;;;;3.83;1.37;;;;;;;25.04;80.55;101032.41;5025780;57;1138770;-66
2023/08/22 12:10:05;;;;;;;;;;;;;;;25.08;78.74;101036.87;5039390;56;1138809;-66
2023/08/22 12:15:11;;;;;;;5.65;1.80;;;;;;;25.19;79.30;101035.81;5055512;56;976096;-67
2023/08/22 12:20:16;;;;;;;8.15;1.17;;;;;;;25.29;78.76;101025.94;5136707;55;1136864;-66
2023/08/22 12:25:22;;;;;;;9.53;1.60;;;;;;;25.30;74.75;101020.84;5190139;55;1138560;-68
2023/08/22 12:30:28;;;;;;;3.27;1.20;;;;;;;25.17;75.12;101008.09;5172838;55;1138849;-66
2023/08/22 12:35:38;;;;;;;1.95;1.20;;;;;;;25.07;75.28;101010.33;5060687;56;1138684;-65
2023/08/22 12:40:43;;;;;;;2.77;1.27;;;;;;;25.05;76.03;101018.36;5128216;56;1138670;-67
2023/08/22 12:45:49;;;;;;;5.25;1.35;;;;;;;24.97;75.81;101011.23;5049909;56;1138539;-68
2023/08/22 12:50:55;;;;;;;6.95;1.52;;;;;;;24.96;77.69;101010.08;5069623;55;1139167;-68
2023/08/22 12:56:00;;;;;;;14.30;2.15;;;;;;;24.99;78.41;101007.81;5130839;55;1138857;-67
2023/08/22 13:01:06;;;;;;;7.78;1.40;;;;;;;25.00;78.72;100991.05;5114072;55;1141094;-66
2023/08/22 13:06:12;;;;;;;8.28;1.32;;;;;;;25.01;77.33;100984.61;5090013;55;1138742;-65
2023/08/22 13:11:18;;;;;;;3.33;1.30;;;;;;;25.02;77.04;100975.45;5242229;55;1138514;-67
2023/08/22 13:16:23;;;;;;;5.00;1.15;;;;;;;25.05;75.91;100966.41;5221861;55;1138564;-67
2023/08/22 13:21:29;;;;;;;8.10;1.50;;;;;;;25.05;75.22;100961.00;5202354;55;1139017;-67
2023/08/22 13:26:34;;;;;;;8.50;1.30;;;;;;;25.06;75.21;100957.75;5279590;54;1138838;-68
2023/08/22 13:31:40;;;;;;;4.12;1.40;;;;;;;25.08;75.91;100951.09;5247988;54;1138710;-66
2023/08/22 13:36:46;;;;;;;2.90;1.45;;;;;;;25.10;77.75;100962.56;5165801;55;1138846;-64
2023/08/22 13:41:51;;;;;;;4.97;1.37;;;;;;;25.12;77.80;100960.48;5189344;55;1138682;-66
2023/08/22 13:46:58;;;;;;;3.92;1.75;;;;;;;25.10;78.12;100965.27;5178359;55;1138781;-66
2023/08/22 13:52:03;;;;;;;3.33;2.00;;;;;;;25.07;78.20;100952.13;5304249;55;1138639;-65
2023/08/22 13:57:09;;;;;;;3.98;1.80;;;;;;;25.10;78.43;100945.48;5309493;55;1138834;-68
2023/08/22 14:02:15;;;;;;;7.20;1.80;;;;;;;25.10;79.14;100946.84;5249193;54;1138684;-68
2023/08/22 14:07:21;;;;;;;6.97;2.13;;;;;;;25.15;79.61;100945.72;5186909;54;1138850;-68
2023/08/22 14:12:26;;;;;;;11.40;2.45;;;;;;;25.16;78.55;100944.68;5266046;55;1138447;-66
2023/08/22 14:17:32;;;;;;;5.03;2.00;;;;;;;25.12;78.53;100943.41;5176937;54;1140830;-69
2023/08/22 14:22:38;;;;;;;10.18;2.87;;;;;;;25.10;78.10;100954.44;5240388;55;1138850;-68
2023/08/22 14:27:44;;;;;;;18.20;3.15;;;;;;;25.10;78.56;100953.09;5229436;55;1140860;-67
2023/08/22 14:32:50;;;;;;;8.45;2.25;;;;;;;25.09;78.92;100947.88;5240819;54;1140919;-68
2023/08/22 14:37:56;;;;;;;4.17;2.00;;;;;;;25.06;79.26;100942.86;5154435;55;1138979;-64
2023/08/22 14:43:01;;;;;;;9.13;1.75;;;;;;;25.04;79.43;100947.67;5150663;56;1138881;-67
2023/08/22 14:48:07;;;;;;;10.45;1.75;;;;;;;24.95;79.08;100942.10;5271989;55;1138708;-66
2023/08/22 14:53:16;;;;;;;19.32;1.42;;;;;;;24.87;79.34;100937.17;5264243;54;1140844;-68
2023/08/22 14:58:23;;;;;;;9.40;2.00;;;;;;;24.83;79.41;100922.36;5279156;55;1141209;-66
2023/08/22 15:03:29;;;;;;;8.68;2.56;;;;;;;24.79;79.96;100919.73;5166418;54;1139187;-67
2023/08/22 15:08:35;;;;;;;14.87;3.42;;;;;;;24.71;80.40;100931.27;5206222;54;1139147;-64
2023/08/22 15:13:41;;;;;;;4.85;2.77;;;;;;;24.62;81.08;100934.64;5276819;54;1140876;-67
2023/08/22 15:18:46;;;;;;;5.28;2.05;;;;;;;24.55;81.44;100933.79;5250109;54;1138886;-64
2023/08/22 15:23:52;;;;;;;16.35;2.67;;;;;;;24.48;81.86;100921.57;5201162;55;1138755;-64
2023/08/22 15:28:57;;;;;;;7.28;3.45;;;;;;;24.46;82.44;100914.17;5312305;54;1140893;-65
2023/08/22 15:34:03;;;;;;;4.50;2.12;;;;;;;24.42;82.68;100914.28;5274486;54;1138621;-64
2023/08/22 15:39:09;;;;;;;8.35;2.10;;;;;;;24.38;83.15;100917.57;5262417;54;1138806;-65
2023/08/22 15:44:14;;;;;;;10.00;2.72;;;;;;;24.36;83.18;100913.71;5310930;54;1138834;-67
2023/08/22 15:49:20;;;;;;;4.55;1.82;;;;;;;24.27;82.96;100919.48;5320382;54;1140994;-65
2023/08/22 15:54:25;;;;;;;4.33;1.50;;;;;;;24.17;83.14;100925.19;5348959;54;1138714;-67
2023/08/22 15:59:31;;;;;;;17.48;2.02;;;;;;;23.99;81.85;100913.53;5260729;54;1138613;-66
2023/08/22 16:04:37;;;;;;;9.13;1.60;;;;;;;23.81;81.07;100914.56;5221731;56;1140935;-67
2023/08/22 16:09:42;;;;;;;8.45;1.82;;;;;;;23.64;80.80;100936.95;5386649;55;1139123;-64
2023/08/22 16:14:48;;;;;;;13.78;2.95;;;;;;;23.50;80.43;100921.11;5318204;55;1138844;-68
2023/08/22 16:19:54;;;;;;;11.55;2.62;;;;;;;23.38;80.77;100929.89;5216035;55;1140844;-67
2023/08/22 16:24:59;;;;;;;14.83;8.38;;;;;;;23.23;80.18;100913.76;5099252;57;1140991;-65
2023/08/22 16:30:06;;;;;;;16.60;7.17;;;;;;;23.11;80.98;100909.39;5206006;55;1140785;-65
2023/08/22 16:35:12;;;;;;;7.25;2.60;;;;;;;23.03;80.97;100887.09;5185080;55;1140895;-66
2023/08/22 16:40:18;;;;;;;5.93;2.20;;;;;;;22.93;81.22;100898.17;5130881;56;1139208;-65
2023/08/22 16:45:23;;;;;;;5.40;2.15;;;;;;;22.93;81.59;100902.73;5209305;55;1138963;-67
2023/08/22 16:50:29;;;;;;;14.05;2.72;;;;;;;22.90;81.48;100896.40;5186634;55;1138999;-66
2023/08/22 16:55:34;;;;;;;13.83;3.77;;;;;;;22.90;81.52;100903.14;5348918;54;1140994;-66
2023/08/22 17:00:40;;;;;;;9.00;2.52;;;;;;;22.85;81.75;100890.73;5349121;54;1140650;-66
2023/08/22 17:05:46;;;;;;;8.25;2.37;;;;;;;22.82;81.69;100903.23;5346610;54;1138624;-67
2023/08/22 17:10:52;;;;;;;9.80;3.33;;;;;;;22.77;81.90;100903.28;5312011;55;1138833;-67
2023/08/22 17:16:01;;;;;;;1.77;1.10;;;;;;;22.78;81.76;100906.81;5255655;54;1138995;-67
2023/08/22 17:21:10;;;;;;;4.22;2.35;;;;;;;22.75;81.65;100911.23;5305410;54;1138773;-67
2023/08/22 17:26:15;;;;;;;4.62;1.85;;;;;;;22.73;81.69;100900.63;5254440;54;1138964;-66
2023/08/22 17:31:22;;;;;;;4.20;1.52;;;;;;;22.66;81.73;100913.18;5255944;55;1138784;-67
2023/08/22 17:36:28;;;;;;;7.28;2.35;;;;;;;22.68;81.49;100911.65;5269083;55;1138881;-66
2023/08/22 17:41:33;;;;;;;6.67;2.95;;;;;;;22.68;81.76;100907.60;5102676;55;1138828;-65
2023/08/22 17:46:39;;;;;;;4.03;2.47;;;;;;;22.62;81.51;100923.17;5240373;54;1139025;-66
2023/08/22 17:51:46;;;;;;;10.88;4.33;;;;;;;22.65;81.67;100915.55;5252557;54;1138760;-65
2023/08/22 17:56:51;;;;;;;9.53;3.58;;;;;;;22.60;81.52;100912.60;5219582;54;1141018;-67
2023/08/22 18:01:57;;;;;;;11.38;2.33;;;;;;;22.57;81.40;100921.57;5279343;54;1138712;-66
2023/08/22 18:07:03;;;;;;;103.07;23.20;;;;;;;22.49;81.46;100933.78;5318939;54;1140803;-64
2023/08/22 18:12:09;;;;;;;18.05;5.45;;;;;;;22.38;81.74;100920.27;5278748;54;1145140;-66
2023/08/22 18:17:14;;;;;;;7.00;2.52;;;;;;;22.39;82.56;100940.81;5250140;54;1140966;-67
2023/08/22 18:22:20;;;;;;;25.05;5.15;;;;;;;22.36;82.17;100942.02;5108306;55;1139042;-64
2023/08/22 18:27:26;;;;;;;10.38;2.67;;;;;;;22.37;82.92;100940.99;5232539;55;1140951;-66
2023/08/22 18:32:33;;;;;;;11.40;2.87;;;;;;;22.40;83.02;100950.57;5176459;55;1140817;-65
2023/08/22 18:37:39;;;;;;;5.25;2.37;;;;;;;22.46;83.40;100958.73;5234088;54;1140952;-65
2023/08/22 18:42:44;;;;;;;9.00;2.90;;;;;;;22.41;83.05;100957.12;5232765;55;1138701;-65
2023/08/22 18:47:50;;;;;;;10.45;3.12;;;;;;;22.42;83.46;100963.36;5235139;54;1138989;-67
2023/08/22 18:52:55;;;;;;;9.83;3.70;;;;;;;22.35;83.10;100971.84;5233375;54;1140969;-67
2023/08/22 18:58:03;;;;;;;14.75;3.10;;;;;;;22.26;83.42;100975.14;5243220;55;1139023;-67
2023/08/22 19:03:08;;;;;;;8.20;2.90;;;;;;;22.15;83.37;100963.98;5249012;54;1140928;-64
2023/08/22 19:08:14;;;;;;;15.15;3.15;;;;;;;22.06;83.96;100968.59;5257777;55;1138966;-66
2023/08/22 19:13:19;;;;;;;20.97;4.37;;;;;;;;;;5205623;55;1141131;-65
2023/08/22 19:18:24;;;;;;;37.53;7.40;;;;;;;21.99;85.08;100960.42;5288503;54;819772;-65
2023/08/22 19:23:30;;;;;;;21.73;6.55;;;;;;;21.88;85.32;100967.54;5252271;54;1138622;-65
2023/08/22 19:28:35;;;;;;;16.57;5.67;;;;;;;21.84;86.49;100964.06;5256911;54;1140782;-66
2023/08/22 19:33:44;;;;;;;18.12;6.08;;;;;;;21.79;87.19;100966.45;5277815;54;1140788;-67
2023/08/22 19:38:50;;;;;;;22.60;6.00;;;;;;;21.69;87.47;100978.29;5225761;54;1140956;-66
2023/08/22 19:43:55;;;;;;;25.65;11.10;;;;;;;21.60;87.52;100966.42;5243971;54;1141193;-68
2023/08/22 19:49:01;;;;;;;30.70;12.67;;;;;;;21.52;87.34;100968.69;5201272;55;1143381;-67
2023/08/22 19:54:09;;;;;;;20.55;11.38;;;;;;;21.44;87.45;100961.16;5187442;54;1142891;-65
2023/08/22 19:59:15;;;;;;;23.07;9.58;;;;;;;21.33;87.96;100971.33;5207740;54;1142781;-65
2023/08/22 20:04:21;;;;;;;27.77;9.30;;;;;;;21.02;87.55;100979.37;5244913;54;1140898;-67
2023/08/22 20:09:27;;;;;;;15.18;6.33;;;;;;;20.86;88.71;100985.33;5224478;55;1140834;-65
2023/08/22 20:14:35;;;;;;;10.58;5.30;;;;;;;20.86;89.65;100975.91;5187753;55;1140781;-66
2023/08/22 20:19:40;;;;;;;7.75;4.70;;;;;;;20.81;89.29;100984.49;5211726;55;1140828;-65
2023/08/22 20:24:45;;;;;;;13.60;6.08;;;;;;;20.81;90.38;100985.00;5219025;55;1138770;-64
2023/08/22 20:29:51;;;;;;;16.80;6.87;;;;;;;20.79;90.45;100979.80;5249812;55;1140746;-65
2023/08/22 20:34:57;;;;;;;17.25;7.53;;;;;;;20.53;90.45;100985.44;5221559;55;1141011;-66
2023/08/22 20:40:03;;;;;;;18.07;7.80;;;;;;;20.36;91.17;100987.31;5210562;55;1140730;-65
2023/08/22 20:45:09;;;;;;;58.13;14.73;;;;;;;20.24;91.88;100981.09;5184738;55;1140855;-66
2023/08/22 20:50:15;;;;;;;152.05;25.45;;;;;;;20.23;92.37;100982.11;5191824;55;1143078;-65
2023/08/22 20:55:20;;;;;;;56.47;15.13;;;;;;;20.26;92.72;100980.43;5200035;55;1145026;-66
2023/08/22 21:00:26;;;;;;;52.50;14.58;;;;;;;20.19;91.93;100976.73;5223692;55;1143029;-66
2023/08/22 21:05:33;;;;;;;746.27;197.95;;;;;;;20.09;92.67;100986.33;5226137;55;1143047;-65
2023/08/22 21:10:38;;;;;;;113.92;29.82;;;;;;;20.08;93.28;100986.48;5293718;54;1147239;-65
2023/08/22 21:15:44;;;;;;;20.02;10.03;;;;;;;19.99;93.13;100983.83;5372417;54;1145465;-64
2023/08/22 21:20:56;;;;;;;82.75;33.53;;;;;;;19.95;93.25;100989.19;5308483;54;1143213;-66
2023/08/22 21:26:01;;;;;;;47.73;19.83;;;;;;;19.87;92.95;101002.59;5279084;54;1143181;-65
2023/08/22 21:31:10;;;;;;;55.25;20.15;;;;;;;19.53;92.12;101007.28;5328408;54;1142944;-65
2023/08/22 21:36:14;;;;;;;38.90;13.85;;;;;;;19.18;92.55;101014.53;5342105;54;1143348;-66
2023/08/22 21:41:20;;;;;;;32.08;13.45;;;;;;;19.17;94.59;101004.80;5293229;54;1143119;-66
2023/08/22 21:46:26;;;;;;;31.00;12.35;;;;;;;19.25;95.61;101006.66;5311665;54;1143191;-65
2023/08/22 21:51:31;;;;;;;41.13;13.25;;;;;;;19.29;95.72;101013.37;5275681;55;1142987;-64
2023/08/22 21:56:37;;;;;;;32.35;13.15;;;;;;;19.25;95.57;101018.22;5187321;55;1143117;-66
2023/08/22 22:01:42;;;;;;;27.58;13.30;;;;;;;19.23;95.94;101010.03;5324108;54;1142810;-67
2023/08/22 22:06:48;;;;;;;19.40;9.58;;;;;;;19.21;95.60;101014.20;5322839;54;1143104;-65
2023/08/22 22:11:54;;;;;;;19.30;8.80;;;;;;;18.86;94.26;101012.55;5263428;54;1140961;-66
2023/08/22 22:16:59;;;;;;;14.78;8.00;;;;;;;18.78;95.20;101011.69;5232837;54;1140922;-65
2023/08/22 22:22:05;;;;;;;16.50;7.05;;;;;;;18.67;95.46;101010.61;5171649;56;1140828;-66
2023/08/22 22:27:10;;;;;;;21.23;6.05;;;;;;;18.69;96.34;101013.97;5297022;53;1140981;-66
2023/08/22 22:32:16;;;;;;;16.10;6.33;;;;;;;18.39;95.31;101017.45;5332288;54;1140806;-65
2023/08/22 22:37:22;;;;;;;9.65;5.15;;;;;;;18.36;96.63;101024.95;5160628;55;1140941;-67
2023/08/22 22:42:28;;;;;;;11.90;6.62;;;;;;;18.05;96.00;101033.42;5312126;54;1138425;-67
2023/08/22 22:47:34;;;;;;;15.10;6.22;;;;;;;17.87;97.42;101034.77;5323955;54;1141043;-66
2023/08/22 22:52:40;;;;;;;13.45;5.65;;;;;;;17.90;98.43;101034.47;5365655;54;1141375;-66
2023/08/22 22:57:46;;;;;;;12.58;5.00;;;;;;;17.78;97.94;101029.50;5302828;54;1141345;-64
2023/08/22 23:02:51;;;;;;;12.85;6.53;;;;;;;17.75;98.85;101022.62;5303013;54;1141146;-64